Skip to main content

Moimenta da Beira

ID 1210663 · 40.9833, -7.6000 map

Latest reading · 2026-05-09 19:00 (Europe/Lisbon)

Temperature
9.9 °C
Humidity
91 %
Pressure
Precipitation
1.0 mm
Radiation
429 W/m²
Wind speed
6.5 km/h
Wind direction
SE · South-east

24-hour history

Time (Europe/Lisbon) Temp Humidity Pressure Rain Wind Dir
2026-05-09 19:00 9.9 °C 91 % 1.0 mm 6.5 km/h SE
2026-05-09 18:00 9.4 °C 92 % 8.6 mm 8.6 km/h SW
2026-05-09 17:00 12.8 °C 78 % 0.1 mm 12.2 km/h W
2026-05-09 16:00 12.6 °C 77 % 0.5 mm 18.4 km/h S
2026-05-09 15:00 11.7 °C 82 % 0.0 mm 8.3 km/h SE
2026-05-09 14:00 12.5 °C 78 % 0.4 mm 15.1 km/h SE
2026-05-09 13:00 13.3 °C 71 % 0.0 mm 19.8 km/h SE
2026-05-09 12:00 11.1 °C 83 % 0.2 mm 20.2 km/h SE
2026-05-09 11:00 10.6 °C 83 % 0.1 mm 19.1 km/h S
2026-05-09 10:00 11.3 °C 77 % 0.0 mm 9.4 km/h SE
2026-05-09 09:00 11.6 °C 75 % 0.0 mm 15.1 km/h S
2026-05-09 08:00 10.1 °C 82 % 0.0 mm 9.7 km/h SE
2026-05-09 07:00 8.4 °C 87 % 0.0 mm 9.7 km/h SE
2026-05-09 06:00 8.7 °C 84 % 0.0 mm 6.8 km/h S
2026-05-09 05:00 10.3 °C 76 % 0.0 mm 3.6 km/h SE
2026-05-09 04:00 10.7 °C 76 % 0.0 mm 10.1 km/h S
2026-05-09 03:00 11.3 °C 73 % 0.0 mm 11.2 km/h S
2026-05-09 02:00 11.0 °C 76 % 0.0 mm 9.0 km/h S
2026-05-09 01:00 11.5 °C 69 % 0.0 mm 8.6 km/h SE
2026-05-09 00:00 11.0 °C 69 % 0.0 mm 3.6 km/h S
2026-05-08 23:00 10.9 °C 70 % 0.0 mm 3.2 km/h SE
2026-05-08 22:00 10.8 °C 68 % 0.0 mm 4.7 km/h SE
2026-05-08 21:00 11.7 °C 64 % 0.0 mm 1.1 km/h SE
2026-05-08 20:00 14.4 °C 53 % 0.0 mm 5.0 km/h SE